Time;durP1;ratioP1;P1;durP2;ratioP2;P2;SDS_P1;SDS_P2;PMS_P1;PMS_P2;Temp;Humidity;BMP_temperature;BMP_pressure;BME280_temperature;BME280_humidity;BME280_pressure;Samples;Min_cycle;Max_cycle;Signal;HPM_P1;HPM_P2
2023/11/26 00:01:52;;;;;;;6.10;3.10;;;;;;;0.87;84.50;97638.06;4956487;28;20042;-73
2023/11/26 00:04:19;;;;;;;5.28;3.10;;;;;;;1.06;85.05;97661.19;4981953;28;20030;-74
2023/11/26 00:06:45;;;;;;;7.35;2.90;;;;;;;1.17;85.07;97673.88;4957264;28;20096;-73
2023/11/26 00:09:11;;;;;;;7.43;3.38;;;;;;;1.26;84.97;97675.34;4962471;28;20030;-73
2023/11/26 00:11:36;;;;;;;7.05;4.28;;;;;;;1.34;84.70;97687.63;4975877;28;20037;-73
2023/11/26 00:14:02;;;;;;;9.20;4.20;;;;;;;1.37;84.70;97690.69;4983715;28;20078;-73
2023/11/26 00:16:28;;;;;;;5.57;4.38;;;;;;;1.42;83.84;97688.25;4979955;28;20027;-73
2023/11/26 00:18:53;;;;;;;6.25;4.13;;;;;;;1.49;83.56;97688.28;4984536;28;20027;-73
2023/11/26 00:21:21;;;;;;;5.55;4.00;;;;;;;1.49;83.58;97690.13;4980885;28;20117;-73
2023/11/26 00:23:47;;;;;;;6.20;4.20;;;;;;;1.57;84.39;97697.88;4986275;28;20034;-74
2023/11/26 00:26:12;;;;;;;7.13;4.05;;;;;;;1.59;84.73;97698.53;4981581;28;20038;-74
2023/11/26 00:28:38;;;;;;;6.93;4.00;;;;;;;1.62;83.65;97701.59;4980172;28;20034;-74
2023/11/26 00:31:04;;;;;;;5.38;4.10;;;;;;;1.60;84.15;97692.19;4981793;28;20038;-74
2023/11/26 00:33:29;;;;;;;7.10;3.88;;;;;;;1.69;84.21;97704.25;4981011;28;20030;-74
2023/11/26 00:35:55;;;;;;;5.10;3.03;;;;;;;1.71;84.67;97704.84;4966384;28;20125;-74
2023/11/26 00:38:20;;;;;;;6.78;4.32;;;;;;;1.69;83.95;97707.72;4983574;28;20029;-74
2023/11/26 00:40:48;;;;;;;7.68;4.10;;;;;;;1.66;84.77;97709.94;4959435;28;20189;-74
2023/11/26 00:43:14;;;;;;;8.57;4.60;;;;;;;1.59;84.19;97701.97;4967041;28;20061;-74
2023/11/26 00:45:40;;;;;;;7.70;4.55;;;;;;;1.64;84.29;97704.03;4959639;28;20114;-74
2023/11/26 00:48:05;;;;;;;5.90;3.85;;;;;;;1.69;84.15;97712.22;4963197;28;20513;-74
2023/11/26 00:50:31;;;;;;;6.82;4.50;;;;;;;1.73;84.61;97719.56;4960510;28;20039;-74
2023/11/26 00:52:56;;;;;;;6.70;3.60;;;;;;;1.71;83.32;97718.13;4963709;28;20128;-74
2023/11/26 00:55:21;;;;;;;20.75;12.60;;;;;;;1.73;83.74;97716.09;4961056;28;20479;-74
2023/11/26 00:57:47;;;;;;;8.07;3.97;;;;;;;1.80;84.08;97727.53;4965312;28;20034;-72
2023/11/26 01:00:13;;;;;;;13.27;9.18;;;;;;;1.82;83.53;97728.19;4962571;28;20049;-72
2023/11/26 01:02:38;;;;;;;11.32;6.88;;;;;;;1.79;83.76;97733.88;4967586;28;20161;-72
2023/11/26 01:05:04;;;;;;;10.45;5.97;;;;;;;1.73;83.95;97729.34;4963273;28;20419;-72
2023/11/26 01:07:30;;;;;;;7.03;5.35;;;;;;;1.78;83.72;97742.84;4962278;28;20034;-72
2023/11/26 01:09:59;;;;;;;8.07;3.80;;;;;;;1.85;83.40;97749.81;4980885;28;20031;-71
2023/11/26 01:12:25;;;;;;;7.03;2.88;;;;;;;1.76;83.36;97742.25;4956708;28;20490;-71
2023/11/26 01:14:51;;;;;;;4.57;2.35;;;;;;;1.79;83.53;97744.50;4983489;28;20078;-72
2023/11/26 01:17:17;;;;;;;6.10;2.45;;;;;;;1.93;83.18;97751.47;4984483;28;20475;-72
2023/11/26 01:19:42;;;;;;;3.38;2.08;;;;;;;1.97;82.61;97742.09;4959362;28;20118;-72
2023/11/26 01:22:08;;;;;;;4.25;2.45;;;;;;;2.01;82.89;97759.25;4968001;28;20109;-72
2023/11/26 01:24:33;;;;;;;3.75;2.42;;;;;;;2.00;82.66;97757.63;4978283;28;20035;-70
2023/11/26 01:26:58;;;;;;;5.07;2.80;;;;;;;2.01;82.53;97768.03;4964643;28;20117;-71
2023/11/26 01:29:24;;;;;;;5.63;3.95;;;;;;;1.90;81.69;97760.66;4988405;28;20041;-71
2023/11/26 01:31:49;;;;;;;7.85;4.55;;;;;;;1.96;82.48;97770.47;4982546;28;20026;-71
2023/11/26 01:34:15;;;;;;;5.07;2.90;;;;;;;1.96;82.11;97772.34;4963410;28;20641;-73
2023/11/26 01:36:41;;;;;;;5.07;2.97;;;;;;;1.92;82.54;97771.91;4985884;28;20069;-71
2023/11/26 01:39:07;;;;;;;4.90;2.33;;;;;;;1.88;82.20;97775.16;4976149;28;20030;-71
2023/11/26 01:41:33;;;;;;;3.35;2.53;;;;;;;1.76;82.23;97760.81;4979078;28;20026;-71
2023/11/26 01:43:59;;;;;;;4.13;2.60;;;;;;;1.87;82.23;97786.78;4981546;28;20174;-72
2023/11/26 01:46:25;;;;;;;3.63;2.35;;;;;;;1.70;81.43;97774.91;4981353;28;20133;-72
2023/11/26 01:48:50;;;;;;;5.55;2.63;;;;;;;1.83;81.19;97804.13;4982845;28;20031;-72
2023/11/26 01:51:19;;;;;;;2.85;2.25;;;;;;;1.72;81.98;97786.13;4983093;28;20053;-72
2023/11/26 01:53:46;;;;;;;4.45;3.00;;;;;;;1.77;81.52;97802.28;4951225;28;20041;-72
2023/11/26 01:56:12;;;;;;;3.17;2.13;;;;;;;1.71;81.80;97795.91;4966927;28;20114;-71
2023/11/26 01:58:38;;;;;;;7.22;3.00;;;;;;;1.64;80.76;97804.88;4978277;28;20062;-74
2023/11/26 02:01:03;;;;;;;4.43;2.13;;;;;;;1.53;81.59;97797.47;4968799;28;20054;-73
2023/11/26 02:03:29;;;;;;;3.10;2.25;;;;;;;1.51;81.57;97804.81;4963367;28;20046;-73
2023/11/26 02:05:54;;;;;;;3.50;2.28;;;;;;;1.40;80.70;97809.66;4963768;28;20045;-72
2023/11/26 02:08:20;;;;;;;4.13;2.30;;;;;;;1.42;80.94;97812.13;4961398;28;20411;-74
2023/11/26 02:10:46;;;;;;;4.00;2.38;;;;;;;1.33;80.77;97803.50;4950444;28;20027;-74
2023/11/26 02:13:11;;;;;;;3.42;2.03;;;;;;;1.40;80.60;97822.91;4963611;28;20046;-73
2023/11/26 02:15:37;;;;;;;4.88;2.28;;;;;;;1.25;80.76;97805.50;4985722;28;20031;-73
2023/11/26 02:18:03;;;;;;;4.55;2.35;;;;;;;1.33;80.80;97824.72;4964859;28;20058;-73
2023/11/26 02:20:33;;;;;;;3.22;2.20;;;;;;;1.32;81.13;97825.75;4980986;28;20084;-73
2023/11/26 02:22:58;;;;;;;4.05;2.40;;;;;;;1.24;81.30;97825.06;4982196;28;20134;-74
2023/11/26 02:25:29;;;;;;;4.43;2.67;;;;;;;1.32;80.61;97838.19;4964095;28;20482;-73
2023/11/26 02:27:56;;;;;;;3.45;2.38;;;;;;;1.33;80.50;97842.47;4982088;28;20101;-73
2023/11/26 02:30:21;;;;;;;4.95;2.70;;;;;;;1.32;80.24;97839.00;4984164;28;20040;-73
2023/11/26 02:32:47;;;;;;;4.65;2.40;;;;;;;1.32;80.89;97841.66;4959039;28;20121;-72
2023/11/26 02:35:13;;;;;;;4.00;2.50;;;;;;;1.25;81.16;97838.16;4968298;28;20129;-72
2023/11/26 02:37:38;;;;;;;5.97;2.40;;;;;;;1.29;80.84;97844.69;4976194;28;20118;-74
2023/11/26 02:40:08;;;;;;;5.20;2.42;;;;;;;1.26;81.28;97852.22;4978738;28;20074;-74
2023/11/26 02:42:33;;;;;;;3.25;2.50;;;;;;;1.24;80.61;97847.09;4963611;28;20038;-73
2023/11/26 02:45:01;;;;;;;4.05;2.53;;;;;;;1.14;81.21;97846.66;4978952;28;20076;-74
2023/11/26 02:47:27;;;;;;;5.40;3.03;;;;;;;1.20;80.94;97856.47;4976986;28;20100;-74
2023/11/26 02:49:53;;;;;;;5.22;2.70;;;;;;;1.20;80.48;97856.47;4981766;28;20031;-73
2023/11/26 02:52:21;;;;;;;3.80;2.65;;;;;;;1.16;80.47;97860.53;4965065;28;20487;-73
2023/11/26 02:54:47;;;;;;;4.57;2.55;;;;;;;1.15;80.89;97860.69;4976596;28;20031;-74
2023/11/26 02:57:12;;;;;;;5.32;2.50;;;;;;;1.13;80.90;97860.06;4979197;28;20035;-73
2023/11/26 02:59:41;;;;;;;2.92;2.60;;;;;;;1.08;80.73;97854.53;4960916;28;20022;-73
2023/11/26 03:02:08;;;;;;;4.13;2.90;;;;;;;1.04;80.11;97861.25;4949763;28;20041;-72
2023/11/26 03:04:34;;;;;;;5.03;3.13;;;;;;;0.97;81.31;97858.53;4962402;28;20023;-72
2023/11/26 03:06:59;;;;;;;4.13;2.40;;;;;;;1.04;80.98;97862.06;4957748;28;20058;-72
2023/11/26 03:14:45;;;;;;;3.35;2.75;;;;;;;0.98;80.17;97862.81;4958076;28;20047;-72
2023/11/26 03:17:13;;;;;;;3.03;2.40;;;;;;;0.94;81.06;97872.16;4979755;28;20644;-71
2023/11/26 03:19:39;;;;;;;5.75;2.90;;;;;;;0.92;81.20;97879.50;4972746;28;20023;-71
2023/11/26 03:22:09;;;;;;;4.45;2.63;;;;;;;0.76;80.31;97858.56;4960386;28;20023;-71
2023/11/26 03:24:34;;;;;;;4.93;2.70;;;;;;;0.83;80.22;97880.66;4957910;28;20031;-71
2023/11/26 03:27:00;;;;;;;4.20;3.10;;;;;;;0.75;80.51;97878.13;4982110;28;20080;-71
2023/11/26 03:29:25;;;;;;;5.70;3.53;;;;;;;0.70;80.04;97891.94;4976259;28;20123;-72
2023/11/26 03:31:53;;;;;;;3.88;3.10;;;;;;;0.64;80.24;97886.59;4979044;28;20398;-72
2023/11/26 03:34:18;;;;;;;5.35;3.30;;;;;;;0.49;80.14;97872.59;4959272;28;20039;-71
2023/11/26 03:36:44;;;;;;;4.72;3.10;;;;;;;0.56;80.36;97892.03;4964382;28;20041;-75
2023/11/26 03:39:12;;;;;;;7.28;3.20;;;;;;;0.48;80.09;97897.44;4978097;28;20111;-73
2023/11/26 03:41:38;;;;;;;4.80;3.72;;;;;;;0.53;80.10;97906.47;4958763;28;20045;-73
2023/11/26 03:44:03;;;;;;;4.55;3.22;;;;;;;0.52;80.74;97917.22;4978422;28;20035;-72
2023/11/26 03:46:32;;;;;;;5.05;2.92;;;;;;;0.50;81.31;97912.13;4960118;28;20537;-74
2023/11/26 03:48:58;;;;;;;4.88;3.60;;;;;;;0.39;81.21;97903.84;4978542;28;20050;-75
2023/11/26 03:51:24;;;;;;;4.82;3.38;;;;;;;0.44;80.78;97922.66;4977017;28;20030;-74
2023/11/26 03:53:49;;;;;;;5.15;3.30;;;;;;;0.35;81.05;97913.19;4967348;28;20494;-73
2023/11/26 03:56:14;;;;;;;4.68;3.30;;;;;;;0.33;80.77;97926.59;4967921;28;20065;-71
2023/11/26 03:58:40;;;;;;;6.78;3.72;;;;;;;0.23;81.01;97917.31;4976339;28;20030;-73
2023/11/26 04:01:08;;;;;;;6.13;3.58;;;;;;;0.16;80.66;97908.47;4985328;28;20030;-72
2023/11/26 04:03:34;;;;;;;5.07;3.72;;;;;;;0.13;81.14;97908.84;4978432;28;20066;-74
2023/11/26 04:06:00;;;;;;;5.28;3.78;;;;;;;0.13;80.72;97914.13;4968947;28;20096;-74
2023/11/26 04:08:26;;;;;;;5.45;3.80;;;;;;;0.17;81.20;97929.47;4979820;28;20109;-74
2023/11/26 04:10:52;;;;;;;5.13;3.58;;;;;;;0.15;80.83;97943.88;4949336;28;20122;-74
2023/11/26 04:13:18;;;;;;;6.78;3.85;;;;;;;0.00;80.56;97925.41;4962695;28;20046;-74
2023/11/26 04:15:46;;;;;;;5.43;4.53;;;;;;;0.06;81.69;97942.34;4966986;28;20030;-74
2023/11/26 04:18:12;;;;;;;6.50;3.67;;;;;;;-0.06;81.51;97926.94;4947858;28;20041;-73
2023/11/26 04:20:39;;;;;;;6.75;4.38;;;;;;;0.01;81.55;97948.19;4969401;28;20046;-72
2023/11/26 04:23:04;;;;;;;4.85;4.22;;;;;;;-0.04;82.03;97948.75;4981844;28;20479;-75
2023/11/26 04:25:30;;;;;;;7.13;4.13;;;;;;;-0.13;81.34;97936.63;4962341;28;20038;-72
2023/11/26 04:27:55;;;;;;;5.53;4.55;;;;;;;-0.06;81.17;97955.22;4982340;28;20043;-71
2023/11/26 04:30:21;;;;;;;5.50;4.60;;;;;;;-0.13;81.13;97941.09;4982432;28;20022;-72
2023/11/26 04:32:47;;;;;;;4.70;4.22;;;;;;;-0.04;81.88;97962.00;4983891;28;20039;-73
2023/11/26 04:35:12;;;;;;;5.35;4.10;;;;;;;-0.06;81.19;97961.34;4966461;28;20109;-73
2023/11/26 04:37:38;;;;;;;8.98;4.43;;;;;;;-0.14;81.26;97958.78;4975880;28;20038;-74
2023/11/26 04:40:05;;;;;;;5.63;4.35;;;;;;;-0.11;82.01;97971.66;4962289;28;20033;-73
2023/11/26 04:42:32;;;;;;;4.93;3.58;;;;;;;-0.16;82.22;97968.75;4961603;28;20047;-74
2023/11/26 04:44:58;;;;;;;5.63;3.63;;;;;;;-0.16;81.60;97976.69;4964825;28;20035;-73
2023/11/26 04:47:23;;;;;;;4.20;3.75;;;;;;;-0.22;81.41;97972.13;4979219;28;20152;-71
2023/11/26 04:49:49;;;;;;;4.05;3.63;;;;;;;-0.32;81.27;97962.81;4983832;28;20030;-74
2023/11/26 04:52:14;;;;;;;5.10;4.20;;;;;;;-0.23;81.53;97974.94;4980317;28;20069;-73
2023/11/26 04:54:39;;;;;;;5.90;4.93;;;;;;;-0.29;81.21;97973.03;4985511;28;20030;-73
2023/11/26 04:57:05;;;;;;;17.63;11.48;;;;;;;-0.42;81.75;97963.06;4988622;28;20226;-72
2023/11/26 04:59:30;;;;;;;5.85;5.20;;;;;;;-0.47;81.52;97954.03;4991630;28;20018;-73
2023/11/26 05:01:56;;;;;;;6.07;4.55;;;;;;;-0.37;81.37;97987.16;4994388;28;20095;-72
2023/11/26 05:04:21;;;;;;;6.85;4.22;;;;;;;-0.39;81.79;97983.88;4992322;28;20038;-73
2023/11/26 05:06:47;;;;;;;4.85;4.40;;;;;;;-0.40;82.01;97987.53;4971296;28;20456;-72
2023/11/26 05:09:12;;;;;;;7.90;4.50;;;;;;;-0.43;81.50;97979.94;4964658;28;20018;-71
2023/11/26 05:11:44;;;;;;;7.85;4.65;;;;;;;-0.44;81.97;97993.34;4975811;28;20152;-73
2023/11/26 05:14:10;;;;;;;6.68;5.03;;;;;;;-0.49;81.33;97993.88;4983137;28;20122;-72
2023/11/26 05:16:36;;;;;;;6.57;4.80;;;;;;;-0.59;81.86;97982.75;4977175;28;20110;-72
2023/11/26 05:19:01;;;;;;;5.32;3.75;;;;;;;-0.55;81.97;97994.59;4964450;28;20044;-73
2023/11/26 05:21:27;;;;;;;5.15;4.00;;;;;;;-0.57;81.35;98001.91;4979325;28;20023;-72
2023/11/26 05:23:53;;;;;;;5.88;4.60;;;;;;;-0.62;81.30;97998.97;4977467;28;20483;-71
2023/11/26 05:26:19;;;;;;;4.03;3.67;;;;;;;-0.65;81.39;97994.03;4961133;28;20403;-73
2023/11/26 05:28:45;;;;;;;8.40;4.40;;;;;;;-0.70;82.04;98001.66;4965313;28;20089;-72
2023/11/26 05:31:11;;;;;;;5.38;4.63;;;;;;;-0.63;81.48;98017.66;4979339;28;20023;-73
2023/11/26 05:33:37;;;;;;;5.40;4.82;;;;;;;-0.73;81.38;98012.63;4966898;28;20130;-72
2023/11/26 05:36:05;;;;;;;6.38;5.07;;;;;;;-0.75;81.51;98009.34;4979718;28;20129;-74
2023/11/26 05:38:30;;;;;;;7.50;4.20;;;;;;;-0.87;81.39;98018.69;4960947;28;20045;-73
2023/11/26 05:40:56;;;;;;;6.35;5.25;;;;;;;-0.72;82.25;98022.19;4974664;28;20035;-74
2023/11/26 05:43:21;;;;;;;6.00;5.18;;;;;;;-0.70;82.11;98034.22;4983332;28;20034;-72
2023/11/26 05:45:46;;;;;;;5.80;4.85;;;;;;;-0.75;81.68;98026.00;4975391;28;20026;-71
2023/11/26 05:48:12;;;;;;;5.38;4.50;;;;;;;-0.80;82.50;98038.13;4983404;28;20045;-72
2023/11/26 05:50:38;;;;;;;7.40;4.80;;;;;;;-0.87;82.20;98008.94;4977254;28;20050;-71
2023/11/26 05:53:04;;;;;;;7.45;5.78;;;;;;;-0.88;82.12;98017.84;4979755;28;20050;-71
2023/11/26 05:55:29;;;;;;;8.25;5.80;;;;;;;-0.74;81.98;98047.97;4961874;28;20034;-71
2023/11/26 05:57:55;;;;;;;9.52;6.85;;;;;;;-0.76;82.03;98036.75;4981643;28;20487;-72
2023/11/26 06:00:20;;;;;;;7.88;5.97;;;;;;;-0.87;81.66;98037.19;4978743;28;20033;-70
2023/11/26 06:02:46;;;;;;;8.07;5.97;;;;;;;-0.82;81.82;98040.13;4973352;28;20045;-71
2023/11/26 06:05:12;;;;;;;11.93;9.82;;;;;;;-0.96;81.87;98033.78;4962580;28;20117;-71
2023/11/26 06:07:38;;;;;;;9.23;7.55;;;;;;;-0.88;81.83;98043.44;4960349;28;20137;-72
2023/11/26 06:10:04;;;;;;;7.20;5.90;;;;;;;-0.91;81.89;98049.13;4969857;28;20460;-72
2023/11/26 06:12:31;;;;;;;9.30;6.32;;;;;;;-0.90;82.28;98054.22;4980977;28;20561;-70
2023/11/26 06:14:56;;;;;;;9.57;6.70;;;;;;;-0.96;81.82;98051.44;4973714;28;20031;-70
2023/11/26 06:17:22;;;;;;;9.05;5.53;;;;;;;-1.12;81.67;98057.63;4982376;28;20034;-70
2023/11/26 06:19:47;;;;;;;9.25;6.70;;;;;;;-1.05;82.33;98049.88;4974820;28;20027;-69
2023/11/26 06:22:13;;;;;;;7.75;6.30;;;;;;;-1.01;81.62;98061.72;4974498;28;20053;-70
2023/11/26 06:24:38;;;;;;;7.95;7.15;;;;;;;-1.03;82.29;98055.78;4958011;28;20034;-70
2023/11/26 06:27:04;;;;;;;7.35;6.65;;;;;;;-1.15;82.43;98054.53;4984648;28;20042;-70
2023/11/26 06:29:30;;;;;;;8.45;6.95;;;;;;;-1.30;82.46;98045.69;4978174;28;20114;-71
2023/11/26 06:31:55;;;;;;;9.70;7.43;;;;;;;-1.20;82.53;98056.88;4980866;28;20411;-73
2023/11/26 06:34:25;;;;;;;10.80;7.68;;;;;;;-1.20;82.49;98056.88;4977602;28;20032;-72
2023/11/26 06:36:51;;;;;;;9.02;6.97;;;;;;;-1.22;82.42;98050.94;4982274;28;20042;-70
2023/11/26 06:39:17;;;;;;;8.55;6.90;;;;;;;-1.20;82.31;98068.28;4963766;28;20022;-73
2023/11/26 06:41:43;;;;;;;15.05;10.85;;;;;;;-1.27;82.45;98059.41;4984855;28;20049;-71
2023/11/26 06:44:09;;;;;;;8.70;6.43;;;;;;;-1.35;82.67;98063.91;4979310;28;20026;-70
2023/11/26 06:46:35;;;;;;;9.25;7.10;;;;;;;-1.17;82.92;98075.03;4978738;28;20037;-71
2023/11/26 06:49:01;;;;;;;8.43;6.80;;;;;;;-1.22;83.01;98074.72;4962931;28;20387;-71
2023/11/26 06:51:26;;;;;;;9.45;7.68;;;;;;;-1.11;82.85;98076.97;4963050;28;20037;-71
2023/11/26 06:53:52;;;;;;;9.82;6.82;;;;;;;-1.23;83.44;98065.13;4968883;28;20041;-70
2023/11/26 06:56:18;;;;;;;18.02;10.90;;;;;;;-1.11;82.89;98087.53;4958147;28;20495;-70
2023/11/26 06:58:44;;;;;;;14.38;11.65;;;;;;;-0.98;83.76;98093.88;4956696;28;20110;-73
2023/11/26 07:01:11;;;;;;;12.38;9.70;;;;;;;-0.91;83.82;98078.19;4960985;28;20047;-74
2023/11/26 07:03:40;;;;;;;11.52;8.45;;;;;;;-1.02;83.60;98068.00;4957956;28;20027;-72
2023/11/26 07:06:08;;;;;;;26.83;20.38;;;;;;;-0.92;83.42;98087.94;4955124;28;20033;-72
2023/11/26 07:08:36;;;;;;;25.98;19.38;;;;;;;-1.04;83.85;98076.09;4959340;28;20478;-74
2023/11/26 07:11:02;;;;;;;31.60;22.77;;;;;;;-0.94;83.31;98094.38;4956093;28;20559;-73
2023/11/26 07:13:28;;;;;;;28.23;18.77;;;;;;;-0.91;83.43;98099.31;4979897;28;20067;-73
2023/11/26 07:15:54;;;;;;;23.70;17.55;;;;;;;-0.89;83.74;98097.31;4951583;28;20126;-74
2023/11/26 07:18:20;;;;;;;12.70;8.55;;;;;;;-1.10;84.14;98102.41;4956084;28;20034;-73
2023/11/26 07:20:48;;;;;;;9.73;8.05;;;;;;;-1.13;84.06;98092.16;4947672;28;20484;-73
2023/11/26 07:23:14;;;;;;;10.63;7.72;;;;;;;-1.28;83.91;98101.84;4957708;28;20393;-76
2023/11/26 07:25:39;;;;;;;13.45;9.82;;;;;;;-1.24;84.38;98113.69;4977181;28;20046;-72
2023/11/26 07:28:08;;;;;;;13.07;9.68;;;;;;;-1.16;84.11;98126.84;4958752;28;20027;-74
2023/11/26 07:30:37;;;;;;;50.97;38.45;;;;;;;-1.01;84.09;98139.19;4955113;28;20062;-75
2023/11/26 07:33:03;;;;;;;88.13;62.03;;;;;;;-0.97;84.77;98148.41;4957769;28;20512;-75
2023/11/26 07:35:30;;;;;;;44.45;24.55;;;;;;;-1.04;84.41;98138.69;4958979;28;20667;-75
2023/11/26 07:37:56;;;;;;;83.97;55.00;;;;;;;-0.92;84.42;98130.22;4956194;28;20031;-71
2023/11/26 07:40:21;;;;;;;38.88;27.63;;;;;;;-0.82;84.21;98145.84;4972474;28;20482;-75
2023/11/26 07:42:47;;;;;;;32.00;25.58;;;;;;;-0.74;84.15;98143.97;4959145;28;20042;-74
2023/11/26 07:45:13;;;;;;;22.60;16.20;;;;;;;-0.62;84.61;98146.22;4977973;28;20042;-75
2023/11/26 07:47:39;;;;;;;19.50;13.95;;;;;;;-0.54;84.75;98143.53;4979310;28;20468;-75
2023/11/26 07:50:08;;;;;;;18.80;13.50;;;;;;;-0.47;84.35;98128.59;4980369;28;20063;-75
2023/11/26 07:52:34;;;;;;;16.08;12.23;;;;;;;-0.27;84.08;98145.63;4961500;28;20023;-75
2023/11/26 07:55:04;;;;;;;17.45;11.70;;;;;;;-0.15;84.07;98144.22;4970963;28;20066;-73
2023/11/26 07:57:34;;;;;;;12.55;11.10;;;;;;;-0.13;84.83;98134.25;4956069;28;20490;-74
2023/11/26 08:00:00;;;;;;;15.32;11.75;;;;;;;-0.08;84.22;98139.84;4967863;28;20027;-72
2023/11/26 08:02:26;;;;;;;13.30;11.48;;;;;;;0.05;84.99;98133.97;4969658;28;20039;-72
2023/11/26 08:04:53;;;;;;;12.77;10.40;;;;;;;0.22;85.03;98152.16;4970322;28;20030;-73
2023/11/26 08:07:26;;;;;;;12.98;10.15;;;;;;;0.29;84.65;98141.66;4979931;28;20038;-74
2023/11/26 08:09:52;;;;;;;9.90;8.90;;;;;;;0.31;85.22;98142.28;4956180;28;20130;-74
2023/11/26 08:12:23;;;;;;;14.32;10.23;;;;;;;0.49;85.60;98153.38;4972351;28;20062;-74
2023/11/26 08:14:51;;;;;;;12.50;10.57;;;;;;;0.49;84.93;98148.06;4971349;28;20043;-74
2023/11/26 08:17:17;;;;;;;16.42;11.52;;;;;;;0.45;85.65;98130.88;4981565;28;20031;-74
2023/11/26 08:19:43;;;;;;;20.90;15.80;;;;;;;0.62;84.77;98153.53;4987147;28;20093;-74
2023/11/26 08:22:09;;;;;;;23.75;19.02;;;;;;;0.61;85.52;98143.94;4980779;28;20054;-74
2023/11/26 08:24:39;;;;;;;17.17;14.02;;;;;;;0.65;85.49;98151.34;4967447;28;20034;-72
2023/11/26 08:27:05;;;;;;;24.98;16.60;;;;;;;0.83;86.06;98158.94;4961989;28;20038;-75
2023/11/26 08:29:30;;;;;;;15.40;12.52;;;;;;;0.84;84.74;98147.31;4957032;28;20101;-75
2023/11/26 08:31:57;;;;;;;14.05;11.73;;;;;;;0.91;85.07;98152.72;4960655;28;20038;-75
2023/11/26 08:34:24;;;;;;;18.27;13.05;;;;;;;1.06;85.06;98166.75;4959254;28;20492;-74
2023/11/26 08:36:51;;;;;;;16.10;12.95;;;;;;;1.00;85.63;98147.13;4980670;28;20153;-73
2023/11/26 08:39:26;;;;;;;15.93;13.25;;;;;;;1.18;85.02;98175.91;4963079;28;20050;-73
2023/11/26 08:41:54;;;;;;;21.80;16.13;;;;;;;1.19;85.06;98173.03;4956222;28;20038;-71
2023/11/26 08:44:20;;;;;;;18.27;15.45;;;;;;;1.27;85.84;98165.00;4965556;28;20038;-73
2023/11/26 08:46:47;;;;;;;21.52;14.63;;;;;;;1.34;85.48;98165.91;4979866;28;20039;-73
2023/11/26 08:49:18;;;;;;;19.27;15.52;;;;;;;1.37;85.63;98154.09;4984110;28;20406;-70
2023/11/26 08:51:44;;;;;;;17.95;14.70;;;;;;;1.53;85.88;98164.47;4940295;28;20426;-67
2023/11/26 08:54:09;;;;;;;22.20;17.17;;;;;;;1.51;85.22;98166.50;4960756;28;20027;-70
2023/11/26 08:56:35;;;;;;;22.58;17.27;;;;;;;1.60;85.70;98156.56;4957541;28;20038;-73
2023/11/26 08:59:00;;;;;;;22.60;14.55;;;;;;;1.58;85.86;98140.00;4979038;28;20058;-73
2023/11/26 09:01:25;;;;;;;17.77;13.27;;;;;;;1.70;85.52;98154.44;4985284;28;20490;-72
2023/11/26 09:03:51;;;;;;;18.50;15.10;;;;;;;1.74;85.30;98151.22;4980168;28;20027;-72
2023/11/26 09:06:18;;;;;;;20.90;14.30;;;;;;;1.66;85.02;98151.31;4979240;28;20047;-71
2023/11/26 09:08:49;;;;;;;23.20;16.95;;;;;;;1.73;84.91;98149.56;4984944;28;20492;-73
2023/11/26 09:11:14;;;;;;;19.63;14.95;;;;;;;1.73;84.81;98154.03;4981071;28;20042;-72
2023/11/26 09:13:40;;;;;;;21.27;14.90;;;;;;;1.74;85.45;98155.69;4963307;28;20463;-73
2023/11/26 09:16:06;;;;;;;18.40;14.45;;;;;;;1.74;84.73;98142.41;4978005;28;20042;-72
2023/11/26 09:18:32;;;;;;;18.95;13.98;;;;;;;1.82;85.34;98152.91;4982699;28;20030;-70
2023/11/26 09:20:58;;;;;;;19.25;14.98;;;;;;;1.86;84.64;98162.13;4979471;28;20039;-71
2023/11/26 09:23:23;;;;;;;20.15;14.65;;;;;;;1.91;84.28;98157.09;4985239;28;20117;-73
2023/11/26 09:25:48;;;;;;;21.67;16.13;;;;;;;1.95;84.67;98163.66;4980156;28;20038;-72
2023/11/26 09:28:14;;;;;;;25.33;18.88;;;;;;;1.88;84.84;98146.84;4961619;28;20077;-72
2023/11/26 09:30:39;;;;;;;21.55;15.73;;;;;;;2.01;84.56;98157.56;4982156;28;20046;-73
2023/11/26 09:33:05;;;;;;;26.33;18.77;;;;;;;2.09;85.09;98160.09;4980324;28;20041;-73
2023/11/26 09:35:30;;;;;;;31.33;22.60;;;;;;;2.09;84.34;98160.09;4984449;28;20081;-72
2023/11/26 09:37:55;;;;;;;28.20;21.50;;;;;;;2.15;84.18;98154.00;4981567;28;20106;-73
2023/11/26 09:40:21;;;;;;;21.27;17.98;;;;;;;2.19;84.19;98149.97;4985238;28;20031;-72
2023/11/26 09:42:52;;;;;;;23.85;17.05;;;;;;;2.14;84.14;98135.63;4979947;28;20034;-71
2023/11/26 09:45:18;;;;;;;21.88;18.67;;;;;;;2.19;84.26;98143.84;4962242;28;20476;-70
2023/11/26 09:47:44;;;;;;;19.88;15.57;;;;;;;2.23;84.52;98135.28;4976942;28;20030;-72
2023/11/26 09:50:09;;;;;;;18.35;14.70;;;;;;;2.33;84.79;98135.78;4964017;28;20038;-72
2023/11/26 09:52:37;;;;;;;18.98;14.88;;;;;;;2.35;84.28;98133.75;4963080;28;20030;-71
2023/11/26 09:55:03;;;;;;;17.40;13.27;;;;;;;2.33;84.56;98124.31;4960342;28;20491;-71
2023/11/26 09:57:29;;;;;;;21.80;15.00;;;;;;;2.32;84.65;98130.63;4988819;28;20054;-71
2023/11/26 09:59:54;;;;;;;21.98;17.13;;;;;;;2.37;85.08;98145.00;4961794;28;20364;-71
2023/11/26 10:02:20;;;;;;;19.35;15.75;;;;;;;2.45;84.27;98139.50;4961061;28;20065;-70
2023/11/26 10:04:49;;;;;;;18.60;15.48;;;;;;;2.50;84.28;98137.09;4978831;28;20047;-73
2023/11/26 10:07:16;;;;;;;21.10;15.73;;;;;;;2.65;84.24;98145.78;4977873;28;20069;-71
2023/11/26 10:09:42;;;;;;;18.00;13.82;;;;;;;2.77;84.13;98138.91;4980150;28;20038;-71
2023/11/26 10:12:07;;;;;;;16.95;13.32;;;;;;;2.83;83.67;98147.09;4960448;28;20074;-71
2023/11/26 10:14:32;;;;;;;17.35;14.88;;;;;;;2.86;83.49;98152.03;4981112;28;20510;-70
2023/11/26 10:17:11;;;;;;;16.52;14.27;;;;;;;2.78;83.45;98151.19;4947107;28;20045;-70
2023/11/26 10:19:38;;;;;;;21.38;15.13;;;;;;;2.67;83.92;98137.63;4941979;28;20476;-70
2023/11/26 10:22:04;;;;;;;17.45;13.88;;;;;;;2.77;84.31;98162.00;4966390;28;20044;-71
2023/11/26 10:24:30;;;;;;;15.88;14.10;;;;;;;2.76;83.96;98153.22;4960423;28;20042;-71
2023/11/26 10:26:57;;;;;;;19.08;13.88;;;;;;;2.63;83.60;98131.88;4962589;28;20395;-70
2023/11/26 10:29:29;;;;;;;17.60;14.10;;;;;;;2.70;84.26;98130.09;4960112;28;20043;-71
2023/11/26 10:31:59;;;;;;;16.58;14.35;;;;;;;2.84;83.81;98144.25;4965543;28;20046;-71
2023/11/26 10:34:25;;;;;;;17.33;15.00;;;;;;;2.73;83.82;98126.22;4978525;28;20043;-71
2023/11/26 10:36:50;;;;;;;18.45;15.38;;;;;;;2.84;83.91;98130.13;4976753;28;20034;-73
2023/11/26 10:39:16;;;;;;;19.90;15.48;;;;;;;2.79;83.69;98115.59;4965736;28;20042;-73
2023/11/26 10:41:45;;;;;;;15.98;13.95;;;;;;;2.96;83.66;98129.41;4944936;28;20031;-73
2023/11/26 10:44:10;;;;;;;17.65;14.40;;;;;;;2.85;83.35;98113.19;4963816;28;20039;-73
2023/11/26 10:46:36;;;;;;;18.20;15.07;;;;;;;2.95;83.93;98118.94;4980680;28;20033;-73
2023/11/26 10:49:14;;;;;;;15.65;13.85;;;;;;;3.03;83.50;98116.13;4964823;28;20411;-72
2023/11/26 10:51:45;;;;;;;16.80;14.15;;;;;;;2.93;83.52;98105.03;4980460;28;20058;-72
2023/11/26 10:54:27;;;;;;;18.05;15.15;;;;;;;3.02;83.91;98119.78;4977039;28;20350;-72
2023/11/26 10:56:54;;;;;;;20.45;16.63;;;;;;;3.18;83.97;98130.06;4955044;28;20031;-73
2023/11/26 10:59:20;;;;;;;17.48;14.63;;;;;;;3.22;83.67;98121.50;4947057;28;20014;-72
2023/11/26 11:01:46;;;;;;;18.17;14.93;;;;;;;3.28;83.43;98109.25;4981369;28;20031;-72
2023/11/26 11:04:14;;;;;;;16.30;13.88;;;;;;;3.38;83.31;98120.34;4964368;28;20430;-74
2023/11/26 11:06:39;;;;;;;19.58;16.58;;;;;;;3.29;83.32;98118.88;4958468;28;20165;-72
2023/11/26 11:09:06;;;;;;;17.65;15.48;;;;;;;3.40;83.69;98128.94;4965909;28;20109;-73
2023/11/26 11:11:51;;;;;;;16.73;14.80;;;;;;;3.35;83.13;98104.75;4961958;28;20042;-73
2023/11/26 11:14:17;;;;;;;18.75;13.75;;;;;;;3.33;84.01;98097.00;4962717;28;20091;-73
2023/11/26 11:16:42;;;;;;;16.60;14.80;;;;;;;3.43;83.59;98102.72;4960702;28;20121;-73
2023/11/26 11:19:07;;;;;;;14.55;12.95;;;;;;;3.39;84.05;98108.66;4963034;28;20042;-72
2023/11/26 11:21:46;;;;;;;10.43;8.27;;;;;;;3.37;82.99;98129.31;4961769;28;20038;-74
2023/11/26 11:24:18;;;;;;;8.10;7.30;;;;;;;3.37;82.40;98124.00;4962570;28;20039;-73
2023/11/26 11:26:47;;;;;;;8.50;7.32;;;;;;;3.44;82.46;98130.16;4982509;28;20498;-72
2023/11/26 11:29:30;;;;;;;8.18;7.00;;;;;;;3.25;81.78;98136.25;4962522;28;20026;-73
2023/11/26 11:32:00;;;;;;;8.95;6.40;;;;;;;3.27;81.98;98137.69;4962490;28;20124;-73
2023/11/26 11:34:25;;;;;;;10.30;6.45;;;;;;;3.18;81.72;98135.41;4959939;28;20027;-72